Time;durP1;ratioP1;P1;durP2;ratioP2;P2;SDS_P1;SDS_P2;PMS_P1;PMS_P2;Temp;Humidity;BMP_temperature;BMP_pressure;BME280_temperature;BME280_humidity;BME280_pressure;Samples;Min_cycle;Max_cycle;Signal;HPM_P1;HPM_P2
2023/06/10 00:01:27;;;;;;;8.87;7.40;;;23.30;1.00;;;;;;5029502;28;20214;-75
2023/06/10 00:03:53;;;;;;;10.87;7.30;;;23.30;1.00;;;;;;5030304;28;20284;-75
2023/06/10 00:06:21;;;;;;;10.67;7.40;;;23.20;1.00;;;;;;5023894;28;20464;-76
2023/06/10 00:08:47;;;;;;;7.27;6.57;;;23.20;1.00;;;;;;5029457;28;20435;-76
2023/06/10 00:11:13;;;;;;;10.93;7.50;;;23.20;1.00;;;;;;5030218;28;20559;-76
2023/06/10 00:13:39;;;;;;;9.00;7.53;;;23.20;1.00;;;;;;5030147;28;20523;-75
2023/06/10 00:16:04;;;;;;;8.80;7.20;;;23.10;1.00;;;;;;5030217;28;20200;-77
2023/06/10 00:18:31;;;;;;;7.83;7.03;;;23.20;1.00;;;;;;5029895;28;20252;-76
2023/06/10 00:21:03;;;;;;;8.60;6.47;;;23.10;1.00;;;;;;5029511;28;20189;-76
2023/06/10 00:23:30;;;;;;;7.90;7.10;;;23.10;1.00;;;;;;5030026;28;20439;-75
2023/06/10 00:25:59;;;;;;;10.43;7.10;;;23.10;1.00;;;;;;5021350;28;20482;-75
2023/06/10 00:28:25;;;;;;;8.07;7.00;;;23.10;1.00;;;;;;5030491;28;20440;-75
2023/06/10 00:30:51;;;;;;;12.03;6.90;;;23.00;1.00;;;;;;5031195;28;20858;-76
2023/06/10 00:33:16;;;;;;;16.17;6.73;;;23.00;1.00;;;;;;5029864;28;20181;-75
2023/06/10 00:35:42;;;;;;;9.00;6.80;;;23.00;1.00;;;;;;5028576;28;20456;-76
2023/06/10 00:38:07;;;;;;;7.80;7.00;;;23.00;1.00;;;;;;5028387;28;20189;-75
2023/06/10 00:40:39;;;;;;;7.63;6.30;;;23.00;1.00;;;;;;5030994;28;20648;-75
2023/06/10 00:43:04;;;;;;;8.00;6.53;;;22.90;1.00;;;;;;5028639;28;20185;-75
2023/06/10 00:45:31;;;;;;;7.90;6.33;;;22.90;1.00;;;;;;5027778;28;20470;-75
2023/06/10 00:47:57;;;;;;;9.07;7.03;;;22.90;1.00;;;;;;5029984;28;20259;-75
2023/06/10 00:50:23;;;;;;;7.30;6.40;;;22.80;1.00;;;;;;5029240;28;20550;-75
2023/06/10 00:52:48;;;;;;;9.00;6.37;;;22.80;1.00;;;;;;5030895;28;20862;-76
2023/06/10 00:55:16;;;;;;;7.60;6.80;;;22.80;1.00;;;;;;5025166;28;20766;-75
2023/06/10 00:57:44;;;;;;;9.00;7.13;;;22.80;1.00;;;;;;5030113;28;20264;-75
2023/06/10 01:00:10;;;;;;;7.93;6.77;;;22.80;1.00;;;;;;5029551;28;20447;-75
2023/06/10 01:02:36;;;;;;;9.50;6.63;;;22.70;1.00;;;;;;5030040;28;20444;-75
2023/06/10 01:05:03;;;;;;;8.00;6.57;;;22.70;1.00;;;;;;5027827;28;20463;-75
2023/06/10 01:07:50;;;;;;;9.80;6.80;;;22.70;1.00;;;;;;5030653;28;20181;-75
2023/06/10 01:10:32;;;;;;;7.60;6.80;;;22.80;1.00;;;;;;5030446;28;20490;-75
2023/06/10 01:12:59;;;;;;;7.80;6.70;;;22.80;1.00;;;;;;5029725;28;20436;-76
2023/06/10 01:15:25;;;;;;;7.63;6.60;;;22.80;1.00;;;;;;5030729;28;20440;-75
2023/06/10 01:18:08;;;;;;;7.53;6.73;;;22.80;1.00;;;;;;5029633;28;20481;-75
2023/06/10 01:20:36;;;;;;;9.20;6.70;;;22.80;1.00;;;;;;5029859;28;20212;-75
2023/06/10 01:23:02;;;;;;;7.77;6.97;;;22.80;1.00;;;;;;5030241;28;20447;-76
2023/06/10 01:25:32;;;;;;;9.50;7.03;;;22.80;1.00;;;;;;5029686;28;20455;-75
2023/06/10 01:28:28;;;;;;;9.97;7.10;;;22.70;1.00;;;;;;5028987;28;20446;-76
2023/06/10 01:31:26;;;;;;;10.07;6.73;;;22.70;1.00;;;;;;5026410;28;20560;-75
2023/06/10 01:33:52;;;;;;;9.33;6.33;;;22.70;1.00;;;;;;5025398;28;20509;-75
2023/06/10 01:36:20;;;;;;;8.30;6.60;;;22.70;1.00;;;;;;5029585;28;20511;-74
2023/06/10 01:38:47;;;;;;;7.90;6.20;;;22.60;1.00;;;;;;5030160;28;20428;-75
2023/06/10 01:41:16;;;;;;;10.10;7.57;;;22.60;1.00;;;;;;5029850;28;21048;-75
2023/06/10 01:43:43;;;;;;;8.27;6.50;;;22.50;1.00;;;;;;5029149;28;20446;-75
2023/06/10 01:46:09;;;;;;;7.53;6.70;;;22.50;1.00;;;;;;5029701;28;20523;-74
2023/06/10 01:48:37;;;;;;;7.40;6.57;;;22.50;1.00;;;;;;5030119;28;20424;-75
2023/06/10 01:51:03;;;;;;;8.20;6.83;;;22.40;1.00;;;;;;5027964;28;20468;-75
2023/06/10 01:53:28;;;;;;;7.40;6.43;;;22.20;1.00;;;;;;5028841;28;20450;-76
2023/06/10 01:55:54;;;;;;;7.87;6.80;;;22.20;1.00;;;;;;5027760;28;20440;-76
2023/06/10 01:58:19;;;;;;;8.10;6.97;;;22.20;1.00;;;;;;5029540;28;20559;-75
2023/06/10 02:00:45;;;;;;;7.70;6.60;;;22.20;1.00;;;;;;5029139;28;20211;-75
2023/06/10 02:03:10;;;;;;;10.60;7.57;;;22.10;1.00;;;;;;5029609;28;20184;-75
2023/06/10 02:05:36;;;;;;;9.87;7.27;;;22.00;1.00;;;;;;5028181;28;20635;-76
2023/06/10 02:08:02;;;;;;;10.53;6.80;;;22.00;1.00;;;;;;5027571;28;20189;-76
2023/06/10 02:10:27;;;;;;;10.80;7.47;;;21.80;1.00;;;;;;5029266;28;20235;-75
2023/06/10 02:12:53;;;;;;;9.43;7.00;;;21.80;1.00;;;;;;5029703;28;20448;-75
2023/06/10 02:15:18;;;;;;;9.97;7.10;;;21.70;1.00;;;;;;5029425;28;20292;-75
2023/06/10 02:17:48;;;;;;;10.40;7.17;;;21.70;1.00;;;;;;5028799;28;20555;-76
2023/06/10 02:20:14;;;;;;;8.90;7.33;;;21.60;1.00;;;;;;5028608;28;20197;-75
2023/06/10 02:22:40;;;;;;;10.30;7.50;;;21.50;1.00;;;;;;5029406;28;20431;-76
2023/06/10 02:25:06;;;;;;;9.53;7.83;;;21.50;1.00;;;;;;5027931;28;20208;-75
2023/06/10 02:27:31;;;;;;;8.33;7.20;;;21.50;1.00;;;;;;5029339;28;20165;-76
2023/06/10 02:29:57;;;;;;;8.57;7.10;;;21.50;1.00;;;;;;5029332;28;21015;-75
2023/06/10 02:32:23;;;;;;;8.87;7.87;;;21.40;1.00;;;;;;5029314;28;20212;-76
2023/06/10 02:34:52;;;;;;;11.87;7.10;;;21.30;1.00;;;;;;5028355;28;20608;-75
2023/06/10 02:37:18;;;;;;;9.70;7.83;;;21.20;1.00;;;;;;5025639;28;20684;-75
2023/06/10 02:39:43;;;;;;;10.83;7.10;;;21.10;1.00;;;;;;5027432;28;20439;-76
2023/06/10 02:42:10;;;;;;;9.87;7.93;;;21.00;1.00;;;;;;5026338;28;20307;-75
2023/06/10 02:44:36;;;;;;;8.90;7.47;;;20.90;1.00;;;;;;5027039;28;20228;-75
2023/06/10 02:47:01;;;;;;;9.40;7.47;;;20.80;1.00;;;;;;5026837;28;20478;-74
2023/06/10 02:49:30;;;;;;;9.07;7.50;;;20.90;1.00;;;;;;5027155;28;20398;-75
2023/06/10 02:51:56;;;;;;;9.97;7.90;;;20.70;1.00;;;;;;5026734;28;20208;-74
2023/06/10 02:54:24;;;;;;;8.27;7.37;;;20.80;1.00;;;;;;5027164;28;20455;-76
2023/06/10 02:56:51;;;;;;;8.47;7.27;;;20.80;1.00;;;;;;5027366;28;20435;-75
2023/06/10 02:59:16;;;;;;;10.40;8.03;;;20.50;1.00;;;;;;5029679;28;20519;-75
2023/06/10 03:01:42;;;;;;;9.00;8.00;;;20.40;1.00;;;;;;5031433;28;20531;-75
2023/06/10 03:04:08;;;;;;;10.80;8.10;;;20.30;1.00;;;;;;5030316;28;20254;-75
2023/06/10 03:06:35;;;;;;;14.23;8.10;;;20.30;1.00;;;;;;5029967;28;20432;-76
2023/06/10 03:09:00;;;;;;;9.50;8.33;;;20.10;1.00;;;;;;5031192;28;20972;-75
2023/06/10 03:11:26;;;;;;;11.43;8.40;;;20.10;1.00;;;;;;5030177;28;20490;-75
2023/06/10 03:13:53;;;;;;;9.60;8.57;;;20.00;1.00;;;;;;5028970;28;20196;-75
2023/06/10 03:16:19;;;;;;;9.13;8.13;;;19.80;1.00;;;;;;5028814;28;20665;-74
2023/06/10 03:18:44;;;;;;;9.80;8.50;;;19.70;1.00;;;;;;5031505;28;20520;-75
2023/06/10 03:21:10;;;;;;;10.97;8.53;;;19.70;1.00;;;;;;5030331;28;20193;-75
2023/06/10 03:23:35;;;;;;;12.80;9.00;;;19.50;1.00;;;;;;5029087;28;20213;-75
2023/06/10 03:26:01;;;;;;;12.73;9.20;;;19.50;1.00;;;;;;5028212;28;20182;-75
2023/06/10 03:28:27;;;;;;;11.43;8.53;;;19.40;1.00;;;;;;5030900;28;20660;-75
2023/06/10 03:30:52;;;;;;;15.60;8.63;;;19.40;1.00;;;;;;5030236;28;20668;-74
2023/06/10 03:33:18;;;;;;;10.47;8.50;;;19.30;1.00;;;;;;5030002;28;20190;-75
2023/06/10 03:35:43;;;;;;;9.93;8.70;;;19.30;1.00;;;;;;5026667;28;20412;-75
2023/06/10 03:38:09;;;;;;;13.27;9.73;;;19.20;1.00;;;;;;5029830;28;20261;-75
2023/06/10 03:40:34;;;;;;;9.97;8.60;;;19.20;1.00;;;;;;5028566;28;20181;-76
2023/06/10 03:43:00;;;;;;;14.10;9.50;;;19.10;1.00;;;;;;5030454;28;20212;-75
2023/06/10 03:45:28;;;;;;;13.17;9.97;;;19.00;1.00;;;;;;5029903;28;20217;-76
2023/06/10 03:47:53;;;;;;;11.30;9.20;;;18.90;1.00;;;;;;5024760;28;20611;-75
2023/06/10 03:50:19;;;;;;;12.80;10.13;;;18.90;1.00;;;;;;5030274;28;20471;-75
2023/06/10 03:52:45;;;;;;;11.03;8.87;;;18.80;1.00;;;;;;5029634;28;20703;-75
2023/06/10 03:55:13;;;;;;;9.90;8.90;;;19.80;1.00;;;;;;5026695;28;20201;-75
2023/06/10 03:57:39;;;;;;;11.10;9.20;;;18.90;1.00;;;;;;5027634;28;20930;-76
2023/06/10 04:00:11;;;;;;;13.30;10.30;;;18.90;1.00;;;;;;5025334;28;20432;-75
2023/06/10 04:02:41;;;;;;;10.43;9.33;;;18.90;1.00;;;;;;5028755;28;20205;-76
2023/06/10 04:05:07;;;;;;;10.13;8.50;;;18.90;1.00;;;;;;5028286;28;20871;-74
2023/06/10 04:07:34;;;;;;;12.77;9.80;;;18.90;1.00;;;;;;5023432;28;20436;-76
2023/06/10 04:09:59;;;;;;;14.00;10.10;;;18.90;1.00;;;;;;5030422;28;20296;-75
2023/06/10 04:12:25;;;;;;;11.00;9.80;;;18.90;1.00;;;;;;5029308;28;20475;-74
2023/06/10 04:14:52;;;;;;;13.33;10.47;;;18.90;1.00;;;;;;5029857;28;20344;-76
2023/06/10 04:17:17;;;;;;;12.20;10.13;;;18.90;1.00;;;;;;5029417;28;20182;-76
2023/06/10 04:19:43;;;;;;;10.70;9.70;;;18.90;1.00;;;;;;5030197;28;20443;-75
2023/06/10 04:22:08;;;;;;;11.17;9.90;;;18.90;1.00;;;;;;5030696;28;20204;-76
2023/06/10 04:24:34;;;;;;;14.53;10.13;;;18.90;1.00;;;;;;5029287;28;20229;-76
2023/06/10 04:27:00;;;;;;;10.80;9.70;;;18.90;1.00;;;;;;5028756;28;20472;-76
2023/06/10 04:29:26;;;;;;;11.10;10.00;;;18.90;1.00;;;;;;5029612;28;20659;-75
2023/06/10 04:31:51;;;;;;;17.47;10.30;;;18.90;1.00;;;;;;5026890;28;20441;-76
2023/06/10 04:34:17;;;;;;;10.83;9.73;;;18.90;1.00;;;;;;5029025;28;20229;-75
2023/06/10 04:36:42;;;;;;;12.40;9.70;;;19.00;1.00;;;;;;5028815;28;20173;-75
2023/06/10 04:39:07;;;;;;;12.30;9.77;;;18.90;1.00;;;;;;5029837;28;20260;-75
2023/06/10 04:41:33;;;;;;;13.13;10.17;;;19.00;1.00;;;;;;5028411;28;20192;-75
2023/06/10 04:43:58;;;;;;;19.53;10.23;;;19.00;1.00;;;;;;5028993;28;20209;-75
2023/06/10 04:46:24;;;;;;;10.73;9.63;;;19.10;1.00;;;;;;5029219;28;20605;-75
2023/06/10 04:48:50;;;;;;;11.80;10.60;;;19.30;1.00;;;;;;5029822;28;20682;-75
2023/06/10 04:51:16;;;;;;;14.30;10.40;;;19.20;1.00;;;;;;5026298;28;20725;-75
2023/06/10 04:53:42;;;;;;;12.77;9.83;;;19.30;1.00;;;;;;5028953;28;20223;-75
2023/06/10 04:56:07;;;;;;;12.77;10.60;;;19.30;1.00;;;;;;5026760;28;20451;-76
2023/06/10 04:58:33;;;;;;;11.37;9.50;;;19.40;1.00;;;;;;5028729;28;20252;-75
2023/06/10 05:00:59;;;;;;;14.97;10.73;;;19.50;1.00;;;;;;5027890;28;20181;-76
2023/06/10 05:03:25;;;;;;;12.23;9.90;;;19.70;1.00;;;;;;5028241;28;20217;-75
2023/06/10 05:05:51;;;;;;;10.60;9.50;;;19.70;1.00;;;;;;5026281;28;20529;-76
2023/06/10 05:08:16;;;;;;;11.60;9.77;;;19.80;1.00;;;;;;5027133;28;20193;-76
2023/06/10 05:10:42;;;;;;;12.60;10.70;;;19.90;1.00;;;;;;5029120;28;20622;-75
2023/06/10 05:13:07;;;;;;;11.57;10.20;;;20.00;1.00;;;;;;5029107;28;20264;-75
2023/06/10 05:15:33;;;;;;;12.80;10.70;;;20.10;1.00;;;;;;5026912;28;20205;-74
2023/06/10 05:17:58;;;;;;;11.40;10.20;;;20.10;1.00;;;;;;5028675;28;20177;-75
2023/06/10 05:20:25;;;;;;;12.40;10.67;;;20.20;1.00;;;;;;5027572;28;20185;-76
2023/06/10 05:22:51;;;;;;;11.63;9.80;;;20.30;1.00;;;;;;5027812;28;20177;-75
2023/06/10 05:25:16;;;;;;;12.57;9.73;;;20.30;1.00;;;;;;5027477;28;20554;-75
2023/06/10 05:27:42;;;;;;;12.00;10.33;;;20.40;1.00;;;;;;5028553;28;20185;-75
2023/06/10 05:30:10;;;;;;;14.17;10.03;;;20.50;1.00;;;;;;5027899;28;20662;-75
2023/06/10 05:32:36;;;;;;;16.17;10.03;;;20.50;1.00;;;;;;5025826;28;20452;-75
2023/06/10 05:35:03;;;;;;;12.67;10.70;;;20.60;1.00;;;;;;5026596;28;20602;-76
2023/06/10 05:37:29;;;;;;;13.90;10.17;;;20.70;1.00;;;;;;5028324;28;20200;-75
2023/06/10 05:39:54;;;;;;;10.87;9.67;;;20.80;1.00;;;;;;5025871;28;20472;-74
2023/06/10 05:42:20;;;;;;;10.63;9.53;;;20.90;1.00;;;;;;5028726;28;20193;-76
2023/06/10 05:44:45;;;;;;;11.97;10.33;;;21.00;1.00;;;;;;5027252;28;20204;-75
2023/06/10 05:47:11;;;;;;;12.73;9.93;;;21.10;1.00;;;;;;5027320;28;20623;-75
2023/06/10 05:49:36;;;;;;;10.67;9.57;;;21.30;1.00;;;;;;5028392;28;20231;-74
2023/06/10 05:52:02;;;;;;;10.93;9.83;;;21.40;1.00;;;;;;5025853;28;20181;-76
2023/06/10 05:54:27;;;;;;;10.33;9.23;;;21.50;1.00;;;;;;5028133;28;20600;-75
2023/06/10 05:56:53;;;;;;;11.60;8.20;;;21.70;1.00;;;;;;5026768;28;20181;-75
2023/06/10 05:59:18;;;;;;;9.60;8.60;;;21.70;1.00;;;;;;5027506;28;20642;-75
2023/06/10 06:01:44;;;;;;;9.57;8.37;;;21.90;1.00;;;;;;5026844;28;20644;-75
2023/06/10 06:04:10;;;;;;;11.30;9.13;;;22.00;1.00;;;;;;5027125;28;20735;-75
2023/06/10 06:06:38;;;;;;;9.90;8.60;;;22.10;1.00;;;;;;5026551;28;20177;-76
2023/06/10 06:09:03;;;;;;;13.53;8.97;;;22.20;1.00;;;;;;5027361;28;20173;-75
2023/06/10 06:11:29;;;;;;;9.43;8.50;;;22.30;1.00;;;;;;5026804;28;21191;-76
2023/06/10 06:13:55;;;;;;;13.60;8.97;;;22.30;1.00;;;;;;5026546;28;20205;-75
2023/06/10 06:16:21;;;;;;;9.33;8.37;;;23.90;1.00;;;;;;5026963;28;20723;-76
2023/06/10 06:18:47;;;;;;;11.77;8.40;;;22.50;1.00;;;;;;5027575;28;21859;-75
2023/06/10 06:21:12;;;;;;;9.87;8.80;;;22.60;1.00;;;;;;5027271;28;20189;-76
2023/06/10 06:23:38;;;;;;;10.00;8.07;;;22.80;1.00;;;;;;5026668;28;20185;-75
2023/06/10 06:26:03;;;;;;;9.57;8.27;;;22.80;1.00;;;;;;5026016;28;20187;-76
2023/06/10 06:28:29;;;;;;;8.93;8.00;;;22.80;1.00;;;;;;5026567;28;20652;-76
2023/06/10 06:30:57;;;;;;;9.33;8.00;;;23.00;1.00;;;;;;5028315;28;20205;-76
2023/06/10 06:33:23;;;;;;;9.60;7.90;;;23.00;1.00;;;;;;5030773;28;20177;-75
2023/06/10 06:35:48;;;;;;;10.13;8.60;;;23.10;1.00;;;;;;5029781;28;22551;-75
2023/06/10 06:38:14;;;;;;;9.23;8.23;;;23.10;1.00;;;;;;5031688;28;20260;-75
2023/06/10 06:40:40;;;;;;;9.50;7.97;;;23.20;1.00;;;;;;5030480;28;20671;-75
2023/06/10 06:43:05;;;;;;;9.40;8.30;;;23.30;1.00;;;;;;5030319;28;20203;-75
2023/06/10 06:45:31;;;;;;;10.20;8.20;;;23.30;1.00;;;;;;5030684;28;20544;-76
2023/06/10 06:47:56;;;;;;;8.70;7.60;;;23.50;1.00;;;;;;5031975;28;20180;-75
2023/06/10 06:50:22;;;;;;;9.33;7.90;;;23.60;1.00;;;;;;5028201;28;20571;-75
2023/06/10 06:52:47;;;;;;;8.53;7.63;;;23.70;1.00;;;;;;5029546;28;20239;-75
2023/06/10 06:55:13;;;;;;;8.67;7.77;;;23.70;1.00;;;;;;5029771;28;20211;-75
2023/06/10 06:57:39;;;;;;;8.80;7.07;;;23.90;1.00;;;;;;5031025;28;20264;-76
2023/06/10 07:00:05;;;;;;;9.00;7.87;;;24.00;1.00;;;;;;5030953;28;20273;-75
2023/06/10 07:02:32;;;;;;;9.67;8.33;;;24.20;1.00;;;;;;5031732;28;20264;-75
2023/06/10 07:04:58;;;;;;;8.60;7.70;;;24.30;1.00;;;;;;5029423;28;21119;-75
2023/06/10 07:07:24;;;;;;;9.30;8.03;;;24.40;1.00;;;;;;5030370;28;20534;-75
2023/06/10 07:09:50;;;;;;;9.27;7.70;;;24.50;1.00;;;;;;5028616;28;20286;-76
2023/06/10 07:12:15;;;;;;;10.03;7.70;;;24.70;1.00;;;;;;5032046;28;20243;-75
2023/06/10 07:14:41;;;;;;;11.33;7.70;;;24.90;1.00;;;;;;5030570;28;20224;-75
2023/06/10 07:17:07;;;;;;;9.53;7.83;;;25.10;1.00;;;;;;5031016;28;20587;-75
2023/06/10 07:19:32;;;;;;;7.97;7.17;;;25.30;1.00;;;;;;5031096;28;20180;-74
2023/06/10 07:21:58;;;;;;;11.30;7.63;;;25.40;1.00;;;;;;5025446;28;20192;-75
2023/06/10 07:24:23;;;;;;;7.90;7.10;;;25.60;1.00;;;;;;5029378;28;20198;-75
2023/06/10 07:26:49;;;;;;;8.30;7.00;;;25.70;1.00;;;;;;5031345;28;20177;-74
2023/06/10 07:29:14;;;;;;;7.73;6.90;;;25.90;1.00;;;;;;5029664;28;20656;-76
2023/06/10 07:31:41;;;;;;;7.73;6.93;;;25.80;1.00;;;;;;5030317;28;20714;-75
2023/06/10 07:34:07;;;;;;;7.63;6.50;;;25.90;1.00;;;;;;5029221;28;20884;-75
2023/06/10 07:36:32;;;;;;;7.10;6.37;;;26.10;1.00;;;;;;5028310;28;20483;-75
2023/06/10 07:38:58;;;;;;;7.67;6.87;;;26.40;1.00;;;;;;5031116;28;20184;-75
2023/06/10 07:41:25;;;;;;;8.23;6.60;;;26.50;1.00;;;;;;5029229;28;20275;-75
2023/06/10 07:43:54;;;;;;;7.38;6.57;;;26.90;1.00;;;;;;5029519;28;20441;-75
2023/06/10 07:46:21;;;;;;;7.37;5.90;;;27.00;1.00;;;;;;5029088;28;20181;-74
2023/06/10 07:48:47;;;;;;;9.53;6.27;;;27.20;1.00;;;;;;5030274;28;20173;-75
2023/06/10 07:51:12;;;;;;;9.10;6.80;;;27.40;1.00;;;;;;5031891;28;20201;-75
2023/06/10 07:53:38;;;;;;;10.20;6.53;;;27.70;1.00;;;;;;5030784;28;20185;-75
2023/06/10 07:56:03;;;;;;;6.80;6.00;;;27.60;1.00;;;;;;5027766;28;20564;-76
2023/06/10 07:58:29;;;;;;;7.30;6.60;;;27.70;1.00;;;;;;5028020;28;20220;-75
2023/06/10 08:00:54;;;;;;;8.20;7.00;;;27.80;1.00;;;;;;5030009;28;20682;-75
2023/06/10 08:03:20;;;;;;;8.20;7.07;;;27.90;1.00;;;;;;5030951;28;20189;-75
2023/06/10 08:05:45;;;;;;;6.97;6.27;;;28.20;1.00;;;;;;5031179;28;20283;-75
2023/06/10 08:08:13;;;;;;;7.47;6.40;;;28.50;1.00;;;;;;5031988;28;20350;-75
2023/06/10 08:10:38;;;;;;;7.30;6.60;;;28.50;1.00;;;;;;5031085;28;20201;-75
2023/06/10 08:13:04;;;;;;;8.07;6.20;;;28.60;1.00;;;;;;5031120;28;20529;-76
2023/06/10 08:15:29;;;;;;;10.90;7.40;;;28.60;1.00;;;;;;5030940;28;20205;-75
2023/06/10 08:17:56;;;;;;;7.67;6.83;;;28.70;1.00;;;;;;5031559;28;20192;-75
2023/06/10 08:20:22;;;;;;;8.20;7.40;;;28.80;1.00;;;;;;5038377;28;20180;-75
2023/06/10 08:22:47;;;;;;;8.13;7.27;;;29.00;1.00;;;;;;5025639;28;20191;-75
2023/06/10 08:25:13;;;;;;;13.50;8.00;;;29.10;1.00;;;;;;5030967;28;20213;-77
2023/06/10 08:27:38;;;;;;;8.70;7.80;;;29.20;1.00;;;;;;5029752;28;20181;-76
2023/06/10 08:30:05;;;;;;;10.97;8.50;;;29.10;1.00;;;;;;5031425;28;20209;-77
2023/06/10 08:32:30;;;;;;;8.93;7.18;;;29.00;1.00;;;;;;5030717;28;20173;-76
2023/06/10 08:34:56;;;;;;;9.93;6.80;;;29.20;1.00;;;;;;5027755;28;20207;-76
2023/06/10 08:37:22;;;;;;;9.55;7.28;;;29.50;1.00;;;;;;5031225;28;20181;-76
2023/06/10 08:39:47;;;;;;;7.93;7.13;;;29.60;1.00;;;;;;5029984;28;20188;-76
2023/06/10 08:42:21;;;;;;;9.88;7.38;;;29.60;1.00;;;;;;5030746;28;20242;-76
2023/06/10 08:44:52;;;;;;;8.55;6.80;;;29.70;1.00;;;;;;5025172;28;20205;-76
2023/06/10 08:47:19;;;;;;;8.00;7.20;;;29.60;1.00;;;;;;5029416;28;20212;-76
2023/06/10 08:49:46;;;;;;;9.93;7.97;;;29.90;1.00;;;;;;5030371;28;20231;-76
2023/06/10 08:52:17;;;;;;;8.43;7.53;;;30.20;1.00;;;;;;5030233;28;20185;-76
2023/06/10 08:54:49;;;;;;;7.85;7.00;;;30.00;1.00;;;;;;5029418;28;20243;-77
2023/06/10 08:57:17;;;;;;;9.18;7.72;;;30.20;1.00;;;;;;5030447;28;20619;-76
2023/06/10 08:59:43;;;;;;;7.68;6.78;;;30.80;1.00;;;;;;5029765;28;20177;-76
2023/06/10 09:02:09;;;;;;;9.00;7.32;;;31.00;1.00;;;;;;5028586;28;20735;-76
2023/06/10 09:04:36;;;;;;;9.38;7.15;;;31.00;1.00;;;;;;5029418;28;20279;-77
2023/06/10 09:07:02;;;;;;;8.98;7.82;;;31.20;1.00;;;;;;5029844;28;20181;-77
2023/06/10 09:09:30;;;;;;;7.53;6.82;;;31.80;1.00;;;;;;5029346;28;20186;-77
2023/06/10 09:11:56;;;;;;;8.13;7.30;;;32.70;1.00;;;;;;5026245;28;20201;-77
2023/06/10 09:14:21;;;;;;;10.18;7.30;;;33.80;1.00;;;;;;5026932;28;20251;-77
2023/06/10 09:16:48;;;;;;;8.35;7.10;;;34.70;1.00;;;;;;5030815;28;20272;-77
2023/06/10 09:19:15;;;;;;;8.38;6.85;;;35.10;1.00;;;;;;5029749;28;20185;-77
2023/06/10 09:21:41;;;;;;;7.78;7.07;;;35.50;1.00;;;;;;5030404;28;20678;-78
2023/06/10 09:24:07;;;;;;;7.18;6.47;;;36.70;1.00;;;;;;5029651;28;20213;-77
2023/06/10 09:26:32;;;;;;;7.53;6.55;;;37.70;1.00;;;;;;5029423;28;20189;-78
2023/06/10 09:29:08;;;;;;;7.63;6.93;;;37.90;1.00;;;;;;5028063;28;20209;-78
2023/06/10 09:31:38;;;;;;;7.82;6.63;;;37.40;1.00;;;;;;5029605;28;20250;-78
2023/06/10 09:34:11;;;;;;;7.28;6.57;;;37.90;1.00;;;;;;5031212;28;20228;-78
2023/06/10 09:36:38;;;;;;;7.93;6.70;;;38.50;1.00;;;;;;5029145;28;20188;-78
2023/06/10 09:39:04;;;;;;;7.85;6.40;;;39.10;1.00;;;;;;5029652;28;20188;-78
2023/06/10 09:41:37;;;;;;;7.20;6.07;;;39.70;1.00;;;;;;5026114;28;20733;-77
2023/06/10 09:44:16;;;;;;;7.13;6.18;;;39.00;1.00;;;;;;5029559;28;20217;-78
2023/06/10 09:46:42;;;;;;;6.95;6.25;;;39.30;1.00;;;;;;5027888;28;20173;-78
2023/06/10 09:49:08;;;;;;;9.48;6.35;;;39.30;1.00;;;;;;5028804;28;20187;-77
2023/06/10 09:51:34;;;;;;;7.15;6.03;;;39.00;1.00;;;;;;5024224;28;20296;-76
2023/06/10 09:54:02;;;;;;;7.10;6.07;;;38.90;1.00;;;;;;5028637;28;20232;-77
2023/06/10 09:56:37;;;;;;;7.63;6.47;;;39.30;1.00;;;;;;5026954;28;20429;-76
2023/06/10 09:59:06;;;;;;;8.07;6.80;;;39.20;1.00;;;;;;5022882;28;20234;-75
2023/06/10 10:01:33;;;;;;;7.07;6.38;;;38.10;1.00;;;;;;5028244;28;20272;-75
2023/06/10 10:03:59;;;;;;;7.30;6.60;;;37.00;1.00;;;;;;5028387;28;20193;-76
2023/06/10 10:06:25;;;;;;;7.63;6.82;;;37.40;1.00;;;;;;5029220;28;20193;-75
2023/06/10 10:08:51;;;;;;;7.45;6.55;;;37.60;1.00;;;;;;5029471;28;20209;-76
2023/06/10 10:11:18;;;;;;;9.32;6.75;;;38.00;1.00;;;;;;5029318;28;20236;-74
2023/06/10 10:13:50;;;;;;;7.72;6.72;;;37.60;1.00;;;;;;5028856;28;20722;-74
2023/06/10 10:16:40;;;;;;;8.30;6.50;;;37.70;1.00;;;;;;5029348;28;20193;-75
2023/06/10 10:19:19;;;;;;;10.45;6.75;;;39.00;1.00;;;;;;5024138;28;20219;-74
2023/06/10 10:21:56;;;;;;;9.80;7.20;;;39.80;1.00;;;;;;5028903;28;20185;-74
2023/06/10 10:24:27;;;;;;;7.32;6.13;;;40.40;1.00;;;;;;5028660;28;20204;-73
2023/06/10 10:26:58;;;;;;;7.00;6.30;;;40.60;1.00;;;;;;5028758;28;20255;-74
2023/06/10 10:29:52;;;;;;;8.68;6.65;;;40.20;1.00;;;;;;5028722;28;20209;-73
2023/06/10 10:32:18;;;;;;;8.10;6.90;;;39.00;1.00;;;;;;5022045;28;20192;-73
2023/06/10 10:34:59;;;;;;;8.07;6.38;;;38.20;1.00;;;;;;5036184;28;20197;-74
2023/06/10 10:37:26;;;;;;;7.43;6.63;;;39.30;1.00;;;;;;5029469;28;20177;-74
2023/06/10 10:39:53;;;;;;;9.70;6.70;;;40.30;1.00;;;;;;5028409;28;20181;-74
2023/06/10 10:42:19;;;;;;;7.05;6.35;;;40.80;1.00;;;;;;5029430;28;20188;-75
2023/06/10 10:44:45;;;;;;;8.85;6.10;;;41.30;1.00;;;;;;5028516;28;20272;-74
2023/06/10 10:47:12;;;;;;;6.88;6.18;;;41.70;1.00;;;;;;5028833;28;20283;-73
2023/06/10 10:49:39;;;;;;;7.03;5.70;;;41.90;1.00;;;;;;5026141;28;20176;-75
2023/06/10 10:52:07;;;;;;;12.63;6.40;;;41.70;1.00;;;;;;5026471;28;20432;-75
2023/06/10 10:54:35;;;;;;;6.07;5.47;;;41.30;1.00;;;;;;5026885;28;20211;-76
2023/06/10 10:57:14;;;;;;;5.80;5.28;;;41.30;1.00;;;;;;5025486;28;20551;-75
2023/06/10 10:59:48;;;;;;;9.77;5.88;;;40.70;1.00;;;;;;5024620;28;20180;-75
2023/06/10 11:02:45;;;;;;;6.38;5.78;;;40.10;1.00;;;;;;5023041;28;20660;-75
2023/06/10 11:05:16;;;;;;;6.65;5.95;;;40.20;1.00;;;;;;5021834;28;20292;-75
2023/06/10 11:07:56;;;;;;;7.22;6.47;;;40.60;1.00;;;;;;5026708;28;20268;-74
2023/06/10 11:10:35;;;;;;;6.80;6.20;;;40.70;1.00;;;;;;5023580;28;20208;-75
2023/06/10 11:13:05;;;;;;;6.82;6.13;;;40.70;1.00;;;;;;5025424;28;20215;-76
2023/06/10 11:15:31;;;;;;;10.00;5.82;;;41.50;1.00;;;;;;5024943;28;20288;-76
2023/06/10 11:18:11;;;;;;;6.70;6.00;;;42.10;1.00;;;;;;5024165;28;20303;-76
2023/06/10 11:20:49;;;;;;;6.63;6.03;;;43.00;1.00;;;;;;5030687;28;20185;-76
2023/06/10 11:23:27;;;;;;;6.82;5.60;;;43.70;1.00;;;;;;5026177;28;20276;-76
2023/06/10 11:26:12;;;;;;;6.82;5.95;;;43.20;1.00;;;;;;5029578;28;20678;-76
2023/06/10 11:28:42;;;;;;;7.65;6.20;;;43.40;1.00;;;;;;5028518;28;20194;-77
2023/06/10 11:31:19;;;;;;;6.18;5.47;;;43.60;1.00;;;;;;5026106;28;20258;-75
2023/06/10 11:34:15;;;;;;;6.15;5.55;;;42.10;1.00;;;;;;5030716;28;20181;-75
2023/06/10 11:36:44;;;;;;;7.88;5.75;;;42.10;1.00;;;;;;5015427;28;20220;-76
2023/06/10 11:39:10;;;;;;;8.05;5.97;;;42.30;1.00;;;;;;5029301;28;20675;-75
2023/06/10 11:41:38;;;;;;;7.55;5.63;;;42.40;1.00;;;;;;5030308;28;20192;-74
2023/06/10 11:44:06;;;;;;;11.73;6.03;;;43.50;1.00;;;;;;5029916;28;20205;-76
2023/06/10 11:46:33;;;;;;;8.50;5.65;;;44.40;1.00;;;;;;5030243;28;20185;-76
2023/06/10 11:49:00;;;;;;;6.40;5.78;;;45.20;1.00;;;;;;5027285;28;20182;-76
2023/06/10 11:51:27;;;;;;;5.63;4.97;;;45.50;1.00;;;;;;5029672;28;20263;-75
2023/06/10 11:53:53;;;;;;;5.30;4.80;;;45.70;1.00;;;;;;5029690;28;20212;-76
2023/06/10 11:56:23;;;;;;;5.60;4.53;;;45.40;1.00;;;;;;5026790;28;20182;-75
2023/06/10 11:59:04;;;;;;;6.22;4.90;;;43.00;1.00;;;;;;5028476;28;20196;-76
2023/06/10 12:01:30;;;;;;;5.80;5.25;;;42.30;1.00;;;;;;5028259;28;20363;-75
2023/06/10 12:04:10;;;;;;;5.95;5.25;;;42.00;1.00;;;;;;5026536;28;20336;-76
2023/06/10 12:06:42;;;;;;;7.70;5.20;;;42.10;1.00;;;;;;5029861;28;20192;-75
2023/06/10 12:09:23;;;;;;;7.20;4.95;;;42.80;1.00;;;;;;5029773;28;20738;-76
2023/06/10 12:12:00;;;;;;;5.70;5.07;;;43.00;1.00;;;;;;5028356;28;20209;-79
2023/06/10 12:14:52;;;;;;;5.97;4.22;;;41.90;1.00;;;;;;5029315;28;20196;-78
2023/06/10 12:17:17;;;;;;;5.22;3.92;;;40.90;1.00;;;;;;5029962;28;20211;-77
2023/06/10 12:19:43;;;;;;;4.93;4.32;;;40.60;1.00;;;;;;5031147;28;20319;-77
2023/06/10 12:22:08;;;;;;;5.53;3.75;;;40.80;1.00;;;;;;5031019;28;20551;-77
2023/06/10 12:24:44;;;;;;;4.43;4.00;;;41.50;1.00;;;;;;5033566;28;20208;-77
2023/06/10 12:27:13;;;;;;;7.57;4.43;;;42.30;1.00;;;;;;5031230;28;20177;-77
2023/06/10 12:29:38;;;;;;;4.95;4.00;;;43.10;1.00;;;;;;5029164;28;20273;-76
2023/06/10 12:32:06;;;;;;;4.90;3.78;;;43.80;1.00;;;;;;5025942;28;20221;-77
2023/06/10 12:34:37;;;;;;;7.20;4.50;;;43.80;1.00;;;;;;5031492;28;20232;-77
2023/06/10 12:37:05;;;;;;;5.82;3.90;;;43.40;1.00;;;;;;5031990;28;20200;-77
2023/06/10 12:39:32;;;;;;;4.40;3.90;;;43.30;1.00;;;;;;5027861;28;20268;-77
2023/06/10 12:41:58;;;;;;;4.65;3.65;;;43.10;1.00;;;;;;5028625;28;20216;-77
2023/06/10 12:44:31;;;;;;;4.90;4.40;;;43.20;1.00;;;;;;5030307;28;20809;-74
2023/06/10 12:46:57;;;;;;;5.10;4.50;;;42.70;1.00;;;;;;5027113;28;20197;-77
2023/06/10 12:49:23;;;;;;;5.63;4.60;;;42.80;1.00;;;;;;5030805;28;20257;-77
2023/06/10 12:51:48;;;;;;;5.07;4.43;;;41.90;1.00;;;;;;5043643;28;20209;-77
2023/06/10 12:54:14;;;;;;;5.28;4.78;;;42.60;1.00;;;;;;5030301;28;20703;-77
2023/06/10 12:56:39;;;;;;;6.20;5.60;;;42.70;1.00;;;;;;5025170;28;20189;-76